TAF Text Data
IDs:
Format:
Raw Decoded Include METAR

Data at: 1531 UTC 17 Nov 2019

METAR for:KLBE (Latrobe/Palmer Rgnl, PA, US)
Text:KLBE 171453Z 13013KT 10SM SKC 04/M04 A3017
Temperature: 4.0°C ( 39°F)
Dewpoint: -4.0°C ( 25°F) [RH = 56%]
Pressure (altimeter):30.17 inches Hg (1021.8 mb)
Winds:from the SE (130 degrees) at 15 MPH (13 knots; 6.7 m/s)
Visibility:10 or more sm (16+ km)
Ceiling:at least 12,000 feet AGL
Clouds:clear skies

TAF for:KLBE (Latrobe/Palmer Rgnl, PA, US) issued at 1127 UTC 17 Nov 2019
Text:KLBE 171127Z 1712/1812 11010KT P6SM SKC
Forecast period:1200 UTC 17 November 2019 to 1200 UTC 18 November 2019
Forecast type:FROM: standard forecast or significant change
Winds:from the ESE (110 degrees) at 12 MPH (10 knots; 5.1 m/s)
Visibility:6 or more sm (10+ km)
Ceiling:at least 12,000 feet AGL
Clouds:clear skies